sensor_id;sensor_type;location;lat;lon;timestamp;temperature;humidity
19803;DHT22;66074;50.764;6.090;2023-04-22T00:02:08;10.90;96.00
19803;DHT22;66074;50.764;6.090;2023-04-22T00:04:34;10.90;96.10
19803;DHT22;66074;50.764;6.090;2023-04-22T00:07:00;11.00;96.10
19803;DHT22;66074;50.764;6.090;2023-04-22T00:09:25;10.90;96.10
19803;DHT22;66074;50.764;6.090;2023-04-22T00:11:51;10.90;96.20
19803;DHT22;66074;50.764;6.090;2023-04-22T00:14:17;10.90;96.30
19803;DHT22;66074;50.764;6.090;2023-04-22T00:16:43;10.90;96.30
19803;DHT22;66074;50.764;6.090;2023-04-22T00:19:08;10.90;96.40
19803;DHT22;66074;50.764;6.090;2023-04-22T00:21:34;11.00;96.40
19803;DHT22;66074;50.764;6.090;2023-04-22T00:23:59;10.90;96.40
19803;DHT22;66074;50.764;6.090;2023-04-22T00:26:25;11.00;96.40
19803;DHT22;66074;50.764;6.090;2023-04-22T00:28:51;10.90;96.40
19803;DHT22;66074;50.764;6.090;2023-04-22T00:31:16;11.00;96.50
19803;DHT22;66074;50.764;6.090;2023-04-22T00:33:42;11.00;96.50
19803;DHT22;66074;50.764;6.090;2023-04-22T00:36:07;11.00;96.50
19803;DHT22;66074;50.764;6.090;2023-04-22T00:38:33;11.00;96.40
19803;DHT22;66074;50.764;6.090;2023-04-22T00:40:59;10.90;96.40
19803;DHT22;66074;50.764;6.090;2023-04-22T00:43:24;10.90;96.40
19803;DHT22;66074;50.764;6.090;2023-04-22T00:45:50;10.90;96.40
19803;DHT22;66074;50.764;6.090;2023-04-22T00:48:16;10.90;96.50
19803;DHT22;66074;50.764;6.090;2023-04-22T00:50:41;10.90;96.50
19803;DHT22;66074;50.764;6.090;2023-04-22T00:53:07;10.90;96.50
19803;DHT22;66074;50.764;6.090;2023-04-22T00:55:33;10.90;96.60
19803;DHT22;66074;50.764;6.090;2023-04-22T00:58:00;10.90;96.60
19803;DHT22;66074;50.764;6.090;2023-04-22T01:00:27;10.90;96.60
19803;DHT22;66074;50.764;6.090;2023-04-22T01:02:54;10.90;96.70
19803;DHT22;66074;50.764;6.090;2023-04-22T01:05:20;10.90;96.70
19803;DHT22;66074;50.764;6.090;2023-04-22T01:07:45;10.90;96.70
19803;DHT22;66074;50.764;6.090;2023-04-22T01:10:11;10.90;96.80
19803;DHT22;66074;50.764;6.090;2023-04-22T01:12:37;10.90;96.80
19803;DHT22;66074;50.764;6.090;2023-04-22T01:15:03;10.90;96.80
19803;DHT22;66074;50.764;6.090;2023-04-22T01:17:29;10.90;96.80
19803;DHT22;66074;50.764;6.090;2023-04-22T01:19:57;10.90;96.80
19803;DHT22;66074;50.764;6.090;2023-04-22T01:22:25;10.90;96.90
19803;DHT22;66074;50.764;6.090;2023-04-22T01:24:52;10.80;96.80
19803;DHT22;66074;50.764;6.090;2023-04-22T01:27:19;10.90;96.80
19803;DHT22;66074;50.764;6.090;2023-04-22T01:29:46;10.90;96.80
19803;DHT22;66074;50.764;6.090;2023-04-22T01:32:12;10.80;96.80
19803;DHT22;66074;50.764;6.090;2023-04-22T01:34:37;10.80;96.80
19803;DHT22;66074;50.764;6.090;2023-04-22T01:37:03;10.80;96.90
19803;DHT22;66074;50.764;6.090;2023-04-22T01:39:30;10.80;97.00
19803;DHT22;66074;50.764;6.090;2023-04-22T01:41:56;10.80;97.00
19803;DHT22;66074;50.764;6.090;2023-04-22T01:44:22;10.80;97.10
19803;DHT22;66074;50.764;6.090;2023-04-22T01:46:48;10.80;97.10
19803;DHT22;66074;50.764;6.090;2023-04-22T01:49:14;10.80;97.20
19803;DHT22;66074;50.764;6.090;2023-04-22T01:51:39;10.80;97.30
19803;DHT22;66074;50.764;6.090;2023-04-22T01:54:05;10.80;97.30
19803;DHT22;66074;50.764;6.090;2023-04-22T01:56:30;10.90;97.30
19803;DHT22;66074;50.764;6.090;2023-04-22T01:58:56;10.90;97.30
19803;DHT22;66074;50.764;6.090;2023-04-22T02:01:22;10.90;97.50
19803;DHT22;66074;50.764;6.090;2023-04-22T02:03:47;10.90;97.40
19803;DHT22;66074;50.764;6.090;2023-04-22T02:06:13;10.90;97.50
19803;DHT22;66074;50.764;6.090;2023-04-22T02:08:38;10.90;97.60
19803;DHT22;66074;50.764;6.090;2023-04-22T02:11:04;10.90;97.70
19803;DHT22;66074;50.764;6.090;2023-04-22T02:13:37;10.90;97.70
19803;DHT22;66074;50.764;6.090;2023-04-22T02:16:03;10.90;97.80
19803;DHT22;66074;50.764;6.090;2023-04-22T02:18:29;11.00;97.80
19803;DHT22;66074;50.764;6.090;2023-04-22T02:20:55;10.90;97.80
19803;DHT22;66074;50.764;6.090;2023-04-22T02:23:21;10.90;97.90
19803;DHT22;66074;50.764;6.090;2023-04-22T02:25:48;11.00;97.90
19803;DHT22;66074;50.764;6.090;2023-04-22T02:28:15;11.00;97.90
19803;DHT22;66074;50.764;6.090;2023-04-22T02:30:40;11.00;97.90
19803;DHT22;66074;50.764;6.090;2023-04-22T02:33:06;11.00;98.00
19803;DHT22;66074;50.764;6.090;2023-04-22T02:35:31;10.90;97.90
19803;DHT22;66074;50.764;6.090;2023-04-22T02:37:57;10.90;98.00
19803;DHT22;66074;50.764;6.090;2023-04-22T02:40:23;10.90;98.00
19803;DHT22;66074;50.764;6.090;2023-04-22T02:42:48;10.90;98.10
19803;DHT22;66074;50.764;6.090;2023-04-22T02:45:14;10.90;98.10
19803;DHT22;66074;50.764;6.090;2023-04-22T02:47:40;11.00;98.20
19803;DHT22;66074;50.764;6.090;2023-04-22T02:50:06;11.00;98.10
19803;DHT22;66074;50.764;6.090;2023-04-22T02:52:32;11.00;98.20
19803;DHT22;66074;50.764;6.090;2023-04-22T02:54:58;10.90;98.20
19803;DHT22;66074;50.764;6.090;2023-04-22T02:57:24;11.00;98.30
19803;DHT22;66074;50.764;6.090;2023-04-22T02:59:50;11.00;98.30
19803;DHT22;66074;50.764;6.090;2023-04-22T03:02:16;10.90;98.30
19803;DHT22;66074;50.764;6.090;2023-04-22T03:04:41;10.90;98.30
19803;DHT22;66074;50.764;6.090;2023-04-22T03:07:07;10.90;98.30
19803;DHT22;66074;50.764;6.090;2023-04-22T03:09:32;10.90;98.40
19803;DHT22;66074;50.764;6.090;2023-04-22T03:11:58;10.90;98.40
19803;DHT22;66074;50.764;6.090;2023-04-22T03:14:23;10.80;98.30
19803;DHT22;66074;50.764;6.090;2023-04-22T03:16:49;10.80;98.40
19803;DHT22;66074;50.764;6.090;2023-04-22T03:19:15;10.70;98.40
19803;DHT22;66074;50.764;6.090;2023-04-22T03:21:41;10.80;98.60
19803;DHT22;66074;50.764;6.090;2023-04-22T03:24:06;10.80;98.60
19803;DHT22;66074;50.764;6.090;2023-04-22T03:26:32;10.80;98.60
19803;DHT22;66074;50.764;6.090;2023-04-22T03:28:58;10.80;98.70
19803;DHT22;66074;50.764;6.090;2023-04-22T03:31:23;10.80;98.70
19803;DHT22;66074;50.764;6.090;2023-04-22T03:33:49;10.90;98.80
19803;DHT22;66074;50.764;6.090;2023-04-22T03:36:14;10.90;98.90
19803;DHT22;66074;50.764;6.090;2023-04-22T03:38:40;10.90;98.90
19803;DHT22;66074;50.764;6.090;2023-04-22T03:41:06;11.00;98.90
19803;DHT22;66074;50.764;6.090;2023-04-22T03:43:31;11.00;98.90
19803;DHT22;66074;50.764;6.090;2023-04-22T03:45:58;11.00;99.00
19803;DHT22;66074;50.764;6.090;2023-04-22T03:48:23;11.10;99.10
19803;DHT22;66074;50.764;6.090;2023-04-22T03:50:49;11.10;99.00
19803;DHT22;66074;50.764;6.090;2023-04-22T03:53:15;11.10;99.00
19803;DHT22;66074;50.764;6.090;2023-04-22T03:55:41;11.10;99.00
19803;DHT22;66074;50.764;6.090;2023-04-22T03:58:06;11.10;99.10
19803;DHT22;66074;50.764;6.090;2023-04-22T04:00:32;11.20;99.30
19803;DHT22;66074;50.764;6.090;2023-04-22T04:02:58;11.30;99.50
19803;DHT22;66074;50.764;6.090;2023-04-22T04:05:23;11.30;99.40
19803;DHT22;66074;50.764;6.090;2023-04-22T04:07:49;11.30;99.40
19803;DHT22;66074;50.764;6.090;2023-04-22T04:10:15;11.30;99.40
19803;DHT22;66074;50.764;6.090;2023-04-22T04:12:40;11.20;99.30
19803;DHT22;66074;50.764;6.090;2023-04-22T04:15:06;11.30;99.40
19803;DHT22;66074;50.764;6.090;2023-04-22T04:17:32;11.30;99.30
19803;DHT22;66074;50.764;6.090;2023-04-22T04:19:57;11.30;99.30
19803;DHT22;66074;50.764;6.090;2023-04-22T04:22:23;11.20;99.30
19803;DHT22;66074;50.764;6.090;2023-04-22T04:24:49;11.20;99.30
19803;DHT22;66074;50.764;6.090;2023-04-22T04:27:14;11.20;99.30
19803;DHT22;66074;50.764;6.090;2023-04-22T04:29:40;11.20;99.30
19803;DHT22;66074;50.764;6.090;2023-04-22T04:32:09;11.30;99.40
19803;DHT22;66074;50.764;6.090;2023-04-22T04:34:35;11.30;99.50
19803;DHT22;66074;50.764;6.090;2023-04-22T04:37:02;11.20;99.30
19803;DHT22;66074;50.764;6.090;2023-04-22T04:39:27;11.20;99.40
19803;DHT22;66074;50.764;6.090;2023-04-22T04:41:54;11.20;99.50
19803;DHT22;66074;50.764;6.090;2023-04-22T04:44:20;11.20;99.40
19803;DHT22;66074;50.764;6.090;2023-04-22T04:46:47;11.20;99.50
19803;DHT22;66074;50.764;6.090;2023-04-22T04:49:12;11.20;99.50
19803;DHT22;66074;50.764;6.090;2023-04-22T04:51:38;11.20;99.50
19803;DHT22;66074;50.764;6.090;2023-04-22T04:54:04;11.30;99.60
19803;DHT22;66074;50.764;6.090;2023-04-22T04:56:30;11.20;99.60
19803;DHT22;66074;50.764;6.090;2023-04-22T04:58:56;11.30;99.70
19803;DHT22;66074;50.764;6.090;2023-04-22T05:01:22;11.30;99.70
19803;DHT22;66074;50.764;6.090;2023-04-22T05:03:48;11.30;99.80
19803;DHT22;66074;50.764;6.090;2023-04-22T05:06:14;11.40;99.80
19803;DHT22;66074;50.764;6.090;2023-04-22T05:08:39;11.40;99.80
19803;DHT22;66074;50.764;6.090;2023-04-22T05:11:05;11.50;99.80
19803;DHT22;66074;50.764;6.090;2023-04-22T05:13:31;11.60;99.80
19803;DHT22;66074;50.764;6.090;2023-04-22T05:15:56;11.60;99.80
19803;DHT22;66074;50.764;6.090;2023-04-22T05:18:22;11.60;99.70
19803;DHT22;66074;50.764;6.090;2023-04-22T05:20:48;11.60;99.70
19803;DHT22;66074;50.764;6.090;2023-04-22T05:23:13;11.60;99.80
19803;DHT22;66074;50.764;6.090;2023-04-22T05:25:39;11.60;99.70
19803;DHT22;66074;50.764;6.090;2023-04-22T05:28:05;11.80;99.80
19803;DHT22;66074;50.764;6.090;2023-04-22T05:30:30;12.00;99.70
19803;DHT22;66074;50.764;6.090;2023-04-22T05:32:56;12.10;99.60
19803;DHT22;66074;50.764;6.090;2023-04-22T05:35:22;12.20;99.40
19803;DHT22;66074;50.764;6.090;2023-04-22T05:37:47;12.30;99.30
19803;DHT22;66074;50.764;6.090;2023-04-22T05:40:13;12.30;99.20
19803;DHT22;66074;50.764;6.090;2023-04-22T05:42:38;12.50;99.10
19803;DHT22;66074;50.764;6.090;2023-04-22T05:45:04;12.50;98.90
19803;DHT22;66074;50.764;6.090;2023-04-22T05:47:30;12.60;98.80
19803;DHT22;66074;50.764;6.090;2023-04-22T05:49:56;12.70;98.70
19803;DHT22;66074;50.764;6.090;2023-04-22T05:52:21;12.70;98.60
19803;DHT22;66074;50.764;6.090;2023-04-22T05:54:47;12.70;98.50
19803;DHT22;66074;50.764;6.090;2023-04-22T05:57:12;12.80;98.40
19803;DHT22;66074;50.764;6.090;2023-04-22T05:59:38;12.80;98.40
19803;DHT22;66074;50.764;6.090;2023-04-22T06:02:04;12.90;98.30
19803;DHT22;66074;50.764;6.090;2023-04-22T06:04:29;12.90;98.20
19803;DHT22;66074;50.764;6.090;2023-04-22T06:06:55;12.90;98.10
19803;DHT22;66074;50.764;6.090;2023-04-22T06:09:21;13.00;98.00
19803;DHT22;66074;50.764;6.090;2023-04-22T06:11:47;13.00;97.90
19803;DHT22;66074;50.764;6.090;2023-04-22T06:14:12;13.10;97.80
19803;DHT22;66074;50.764;6.090;2023-04-22T06:16:38;13.10;97.80
19803;DHT22;66074;50.764;6.090;2023-04-22T06:19:05;13.10;97.80
19803;DHT22;66074;50.764;6.090;2023-04-22T06:21:31;13.20;97.80
19803;DHT22;66074;50.764;6.090;2023-04-22T06:24:01;13.20;97.60
19803;DHT22;66074;50.764;6.090;2023-04-22T06:26:29;13.30;97.60
19803;DHT22;66074;50.764;6.090;2023-04-22T06:28:55;13.30;97.60
19803;DHT22;66074;50.764;6.090;2023-04-22T06:31:20;13.40;97.50
19803;DHT22;66074;50.764;6.090;2023-04-22T06:33:46;13.50;97.40
19803;DHT22;66074;50.764;6.090;2023-04-22T06:36:12;13.50;97.40
19803;DHT22;66074;50.764;6.090;2023-04-22T06:38:38;13.50;97.30
19803;DHT22;66074;50.764;6.090;2023-04-22T06:41:04;13.60;97.20
19803;DHT22;66074;50.764;6.090;2023-04-22T06:43:29;13.60;97.10
19803;DHT22;66074;50.764;6.090;2023-04-22T06:45:55;13.70;97.20
19803;DHT22;66074;50.764;6.090;2023-04-22T06:48:21;13.80;97.10
19803;DHT22;66074;50.764;6.090;2023-04-22T06:50:46;13.80;97.00
19803;DHT22;66074;50.764;6.090;2023-04-22T06:53:12;13.90;97.00
19803;DHT22;66074;50.764;6.090;2023-04-22T06:55:37;14.00;96.80
19803;DHT22;66074;50.764;6.090;2023-04-22T06:58:03;14.10;96.80
19803;DHT22;66074;50.764;6.090;2023-04-22T07:00:29;14.20;96.80
19803;DHT22;66074;50.764;6.090;2023-04-22T07:02:54;14.30;96.70
19803;DHT22;66074;50.764;6.090;2023-04-22T07:05:20;14.40;96.70
19803;DHT22;66074;50.764;6.090;2023-04-22T07:07:46;14.50;96.50
19803;DHT22;66074;50.764;6.090;2023-04-22T07:10:12;14.60;96.40
19803;DHT22;66074;50.764;6.090;2023-04-22T07:12:39;14.70;96.30
19803;DHT22;66074;50.764;6.090;2023-04-22T07:15:05;14.80;95.90
19803;DHT22;66074;50.764;6.090;2023-04-22T07:17:31;15.10;96.00
19803;DHT22;66074;50.764;6.090;2023-04-22T07:19:57;15.30;95.90
19803;DHT22;66074;50.764;6.090;2023-04-22T07:22:22;15.50;95.70
19803;DHT22;66074;50.764;6.090;2023-04-22T07:24:48;15.60;95.50
19803;DHT22;66074;50.764;6.090;2023-04-22T07:27:13;15.80;95.40
19803;DHT22;66074;50.764;6.090;2023-04-22T07:29:40;16.00;95.10
19803;DHT22;66074;50.764;6.090;2023-04-22T07:32:05;16.10;94.90
19803;DHT22;66074;50.764;6.090;2023-04-22T07:34:31;16.20;94.80
19803;DHT22;66074;50.764;6.090;2023-04-22T07:36:56;16.20;94.70
19803;DHT22;66074;50.764;6.090;2023-04-22T07:39:22;16.30;94.60
19803;DHT22;66074;50.764;6.090;2023-04-22T07:41:48;16.30;94.60
19803;DHT22;66074;50.764;6.090;2023-04-22T07:44:13;16.40;94.40
19803;DHT22;66074;50.764;6.090;2023-04-22T07:46:43;16.40;94.30
19803;DHT22;66074;50.764;6.090;2023-04-22T07:49:08;16.40;94.30
19803;DHT22;66074;50.764;6.090;2023-04-22T07:51:35;16.40;93.90
19803;DHT22;66074;50.764;6.090;2023-04-22T07:54:01;16.40;94.00
19803;DHT22;66074;50.764;6.090;2023-04-22T07:56:26;16.40;94.10
19803;DHT22;66074;50.764;6.090;2023-04-22T07:58:52;16.40;94.00
19803;DHT22;66074;50.764;6.090;2023-04-22T08:01:18;16.50;94.10
19803;DHT22;66074;50.764;6.090;2023-04-22T08:03:43;16.50;94.00
19803;DHT22;66074;50.764;6.090;2023-04-22T08:06:09;16.60;94.00
19803;DHT22;66074;50.764;6.090;2023-04-22T08:08:34;16.60;93.80
19803;DHT22;66074;50.764;6.090;2023-04-22T08:11:00;16.60;94.00
19803;DHT22;66074;50.764;6.090;2023-04-22T08:13:26;16.70;93.90
19803;DHT22;66074;50.764;6.090;2023-04-22T08:15:51;16.70;93.90
19803;DHT22;66074;50.764;6.090;2023-04-22T08:18:17;16.80;93.70
19803;DHT22;66074;50.764;6.090;2023-04-22T08:20:42;16.70;93.50
19803;DHT22;66074;50.764;6.090;2023-04-22T08:23:08;16.80;93.60
19803;DHT22;66074;50.764;6.090;2023-04-22T08:25:35;16.80;93.60
19803;DHT22;66074;50.764;6.090;2023-04-22T08:28:01;16.90;93.40
19803;DHT22;66074;50.764;6.090;2023-04-22T08:30:26;16.90;93.40
19803;DHT22;66074;50.764;6.090;2023-04-22T08:32:52;16.90;93.20
19803;DHT22;66074;50.764;6.090;2023-04-22T08:35:18;17.00;93.10
19803;DHT22;66074;50.764;6.090;2023-04-22T08:37:44;17.10;93.00
19803;DHT22;66074;50.764;6.090;2023-04-22T08:40:10;17.20;93.10
19803;DHT22;66074;50.764;6.090;2023-04-22T08:42:36;17.30;93.00
19803;DHT22;66074;50.764;6.090;2023-04-22T08:45:03;17.30;92.90
19803;DHT22;66074;50.764;6.090;2023-04-22T08:47:30;17.40;92.80
19803;DHT22;66074;50.764;6.090;2023-04-22T08:49:58;17.40;92.80
19803;DHT22;66074;50.764;6.090;2023-04-22T08:52:26;17.50;92.90
19803;DHT22;66074;50.764;6.090;2023-04-22T08:54:51;17.50;92.80
19803;DHT22;66074;50.764;6.090;2023-04-22T08:57:17;17.60;92.80
19803;DHT22;66074;50.764;6.090;2023-04-22T08:59:44;17.70;92.70
19803;DHT22;66074;50.764;6.090;2023-04-22T09:02:18;17.80;92.60
19803;DHT22;66074;50.764;6.090;2023-04-22T09:04:46;17.90;92.30
19803;DHT22;66074;50.764;6.090;2023-04-22T09:07:21;17.90;92.60
19803;DHT22;66074;50.764;6.090;2023-04-22T09:09:48;18.00;92.10
19803;DHT22;66074;50.764;6.090;2023-04-22T09:12:13;18.10;92.50
19803;DHT22;66074;50.764;6.090;2023-04-22T09:14:39;18.10;92.30
19803;DHT22;66074;50.764;6.090;2023-04-22T09:17:06;18.20;92.40
19803;DHT22;66074;50.764;6.090;2023-04-22T09:19:32;18.30;92.30
19803;DHT22;66074;50.764;6.090;2023-04-22T09:21:57;18.40;92.30
19803;DHT22;66074;50.764;6.090;2023-04-22T09:24:23;18.40;92.30
19803;DHT22;66074;50.764;6.090;2023-04-22T09:26:49;18.50;92.30
19803;DHT22;66074;50.764;6.090;2023-04-22T09:29:15;18.60;92.20
19803;DHT22;66074;50.764;6.090;2023-04-22T09:31:46;18.60;92.00
19803;DHT22;66074;50.764;6.090;2023-04-22T09:34:12;18.60;91.90
19803;DHT22;66074;50.764;6.090;2023-04-22T09:36:38;18.70;91.90
19803;DHT22;66074;50.764;6.090;2023-04-22T09:39:06;18.70;91.70
19803;DHT22;66074;50.764;6.090;2023-04-22T09:41:34;18.70;91.50
19803;DHT22;66074;50.764;6.090;2023-04-22T09:44:01;18.80;91.70
19803;DHT22;66074;50.764;6.090;2023-04-22T09:46:28;18.80;91.40
19803;DHT22;66074;50.764;6.090;2023-04-22T09:48:56;18.80;91.60
19803;DHT22;66074;50.764;6.090;2023-04-22T09:51:24;18.90;91.60
19803;DHT22;66074;50.764;6.090;2023-04-22T09:54:04;18.90;91.30
19803;DHT22;66074;50.764;6.090;2023-04-22T09:59:05;19.00;90.40
19803;DHT22;66074;50.764;6.090;2023-04-22T10:01:37;19.00;91.00
19803;DHT22;66074;50.764;6.090;2023-04-22T10:04:08;19.00;90.20
19803;DHT22;66074;50.764;6.090;2023-04-22T10:06:34;19.00;90.70
19803;DHT22;66074;50.764;6.090;2023-04-22T10:09:01;19.00;90.70
19803;DHT22;66074;50.764;6.090;2023-04-22T10:11:27;19.00;90.80
19803;DHT22;66074;50.764;6.090;2023-04-22T10:13:53;19.00;90.80
19803;DHT22;66074;50.764;6.090;2023-04-22T10:16:23;19.20;90.80
19803;DHT22;66074;50.764;6.090;2023-04-22T10:18:50;19.30;90.00
19803;DHT22;66074;50.764;6.090;2023-04-22T10:21:17;19.30;90.40
19803;DHT22;66074;50.764;6.090;2023-04-22T10:23:47;19.30;90.10
19803;DHT22;66074;50.764;6.090;2023-04-22T10:29:12;19.40;88.20
19803;DHT22;66074;50.764;6.090;2023-04-22T10:31:42;19.40;89.80
19803;DHT22;66074;50.764;6.090;2023-04-22T10:34:13;19.40;90.20
19803;DHT22;66074;50.764;6.090;2023-04-22T10:37:09;19.50;89.80
19803;DHT22;66074;50.764;6.090;2023-04-22T10:39:36;19.60;88.60
19803;DHT22;66074;50.764;6.090;2023-04-22T10:44:48;19.70;90.40
19803;DHT22;66074;50.764;6.090;2023-04-22T10:47:43;19.70;89.20
19803;DHT22;66074;50.764;6.090;2023-04-22T10:55:21;19.70;89.40
19803;DHT22;66074;50.764;6.090;2023-04-22T10:57:49;19.80;90.30
19803;DHT22;66074;50.764;6.090;2023-04-22T11:05:30;20.10;90.00
19803;DHT22;66074;50.764;6.090;2023-04-22T11:11:07;20.60;89.20
19803;DHT22;66074;50.764;6.090;2023-04-22T11:13:33;20.60;88.00
19803;DHT22;66074;50.764;6.090;2023-04-22T11:15:59;20.60;89.50
19803;DHT22;66074;50.764;6.090;2023-04-22T11:18:25;20.60;89.30
19803;DHT22;66074;50.764;6.090;2023-04-22T11:20:52;20.60;89.40
19803;DHT22;66074;50.764;6.090;2023-04-22T11:23:23;20.60;88.90
19803;DHT22;66074;50.764;6.090;2023-04-22T11:25:54;20.70;88.50
19803;DHT22;66074;50.764;6.090;2023-04-22T11:28:20;20.80;88.40
19803;DHT22;66074;50.764;6.090;2023-04-22T11:30:47;20.80;88.70
19803;DHT22;66074;50.764;6.090;2023-04-22T11:33:14;20.80;88.80
19803;DHT22;66074;50.764;6.090;2023-04-22T11:35:40;20.80;88.10
19803;DHT22;66074;50.764;6.090;2023-04-22T11:38:07;20.70;88.30
19803;DHT22;66074;50.764;6.090;2023-04-22T11:40:37;20.70;88.00
19803;DHT22;66074;50.764;6.090;2023-04-22T11:43:04;20.60;88.10
19803;DHT22;66074;50.764;6.090;2023-04-22T11:45:32;20.60;88.40
19803;DHT22;66074;50.764;6.090;2023-04-22T11:47:59;20.60;87.90
19803;DHT22;66074;50.764;6.090;2023-04-22T11:50:27;20.50;87.90
19803;DHT22;66074;50.764;6.090;2023-04-22T11:52:57;20.40;87.70
19803;DHT22;66074;50.764;6.090;2023-04-22T11:55:29;20.30;88.00
19803;DHT22;66074;50.764;6.090;2023-04-22T11:58:05;20.20;87.80
19803;DHT22;66074;50.764;6.090;2023-04-22T12:03:01;19.90;87.70
19803;DHT22;66074;50.764;6.090;2023-04-22T12:05:34;19.70;87.70
19803;DHT22;66074;50.764;6.090;2023-04-22T12:08:10;19.60;87.90
19803;DHT22;66074;50.764;6.090;2023-04-22T12:10:55;19.50;88.20
19803;DHT22;66074;50.764;6.090;2023-04-22T12:13:33;19.50;88.50
19803;DHT22;66074;50.764;6.090;2023-04-22T12:16:12;19.60;88.70
19803;DHT22;66074;50.764;6.090;2023-04-22T12:18:50;19.80;88.80
19803;DHT22;66074;50.764;6.090;2023-04-22T12:21:19;19.80;88.50
19803;DHT22;66074;50.764;6.090;2023-04-22T12:23:53;20.00;88.70
19803;DHT22;66074;50.764;6.090;2023-04-22T12:26:21;20.00;88.50
19803;DHT22;66074;50.764;6.090;2023-04-22T12:28:47;20.10;88.60
19803;DHT22;66074;50.764;6.090;2023-04-22T12:31:13;20.20;88.80
19803;DHT22;66074;50.764;6.090;2023-04-22T12:33:39;20.40;89.00
19803;DHT22;66074;50.764;6.090;2023-04-22T12:36:05;20.50;88.70
19803;DHT22;66074;50.764;6.090;2023-04-22T12:38:34;20.60;88.60
19803;DHT22;66074;50.764;6.090;2023-04-22T12:41:01;20.70;88.40
19803;DHT22;66074;50.764;6.090;2023-04-22T12:43:26;20.80;88.10
19803;DHT22;66074;50.764;6.090;2023-04-22T12:45:52;21.00;88.10
19803;DHT22;66074;50.764;6.090;2023-04-22T12:48:18;20.90;87.50
19803;DHT22;66074;50.764;6.090;2023-04-22T12:50:47;20.80;87.40
19803;DHT22;66074;50.764;6.090;2023-04-22T12:53:14;20.70;87.20
19803;DHT22;66074;50.764;6.090;2023-04-22T12:55:40;20.70;87.40
19803;DHT22;66074;50.764;6.090;2023-04-22T12:58:06;20.60;87.50
19803;DHT22;66074;50.764;6.090;2023-04-22T13:00:32;20.60;87.70
19803;DHT22;66074;50.764;6.090;2023-04-22T13:02:58;20.40;87.60
19803;DHT22;66074;50.764;6.090;2023-04-22T13:05:23;20.30;88.00
19803;DHT22;66074;50.764;6.090;2023-04-22T13:07:49;20.00;87.90
19803;DHT22;66074;50.764;6.090;2023-04-22T13:10:16;20.00;88.40
19803;DHT22;66074;50.764;6.090;2023-04-22T13:12:42;19.80;88.60
19803;DHT22;66074;50.764;6.090;2023-04-22T13:15:09;19.50;88.90
19803;DHT22;66074;50.764;6.090;2023-04-22T13:17:35;19.50;89.30
19803;DHT22;66074;50.764;6.090;2023-04-22T13:20:02;19.40;89.10
19803;DHT22;66074;50.764;6.090;2023-04-22T13:22:29;19.20;89.00
19803;DHT22;66074;50.764;6.090;2023-04-22T13:24:54;19.10;89.20
19803;DHT22;66074;50.764;6.090;2023-04-22T13:27:20;19.00;89.40
19803;DHT22;66074;50.764;6.090;2023-04-22T13:29:46;18.80;89.60
19803;DHT22;66074;50.764;6.090;2023-04-22T13:32:11;18.70;89.80
19803;DHT22;66074;50.764;6.090;2023-04-22T13:34:40;18.70;90.10
19803;DHT22;66074;50.764;6.090;2023-04-22T13:37:06;18.60;90.40
19803;DHT22;66074;50.764;6.090;2023-04-22T13:39:32;18.60;90.30
19803;DHT22;66074;50.764;6.090;2023-04-22T13:41:58;18.60;90.30
19803;DHT22;66074;50.764;6.090;2023-04-22T13:44:24;18.60;90.30
19803;DHT22;66074;50.764;6.090;2023-04-22T13:46:50;18.50;90.30
19803;DHT22;66074;50.764;6.090;2023-04-22T13:49:16;18.40;90.30
19803;DHT22;66074;50.764;6.090;2023-04-22T13:51:42;18.40;90.40
19803;DHT22;66074;50.764;6.090;2023-04-22T13:54:07;18.40;90.40
19803;DHT22;66074;50.764;6.090;2023-04-22T13:56:33;18.40;90.60
19803;DHT22;66074;50.764;6.090;2023-04-22T13:58:59;18.30;90.60
19803;DHT22;66074;50.764;6.090;2023-04-22T14:01:25;18.30;90.60
19803;DHT22;66074;50.764;6.090;2023-04-22T14:03:51;18.30;90.80
19803;DHT22;66074;50.764;6.090;2023-04-22T14:06:17;18.30;90.80
19803;DHT22;66074;50.764;6.090;2023-04-22T14:08:43;18.40;90.80
19803;DHT22;66074;50.764;6.090;2023-04-22T14:11:09;18.40;90.90
19803;DHT22;66074;50.764;6.090;2023-04-22T14:13:35;18.60;91.00
19803;DHT22;66074;50.764;6.090;2023-04-22T14:16:02;18.70;90.90
19803;DHT22;66074;50.764;6.090;2023-04-22T14:18:32;18.80;91.30
19803;DHT22;66074;50.764;6.090;2023-04-22T14:21:00;18.80;90.80
19803;DHT22;66074;50.764;6.090;2023-04-22T14:23:26;18.80;90.80
19803;DHT22;66074;50.764;6.090;2023-04-22T14:25:52;18.80;91.10
19803;DHT22;66074;50.764;6.090;2023-04-22T14:28:17;18.90;90.90
19803;DHT22;66074;50.764;6.090;2023-04-22T14:30:43;19.00;91.00
19803;DHT22;66074;50.764;6.090;2023-04-22T14:33:09;19.00;90.90
19803;DHT22;66074;50.764;6.090;2023-04-22T14:35:36;19.00;90.90
19803;DHT22;66074;50.764;6.090;2023-04-22T14:38:05;19.00;90.90
19803;DHT22;66074;50.764;6.090;2023-04-22T14:40:30;18.90;91.00
19803;DHT22;66074;50.764;6.090;2023-04-22T14:42:59;18.90;91.00
19803;DHT22;66074;50.764;6.090;2023-04-22T14:45:27;19.00;91.10
19803;DHT22;66074;50.764;6.090;2023-04-22T14:47:53;19.00;91.10
19803;DHT22;66074;50.764;6.090;2023-04-22T14:50:19;18.90;91.10
19803;DHT22;66074;50.764;6.090;2023-04-22T14:52:45;18.90;91.20
19803;DHT22;66074;50.764;6.090;2023-04-22T14:55:11;18.90;91.20
19803;DHT22;66074;50.764;6.090;2023-04-22T14:57:37;18.90;91.30
19803;DHT22;66074;50.764;6.090;2023-04-22T15:00:05;18.80;91.40
19803;DHT22;66074;50.764;6.090;2023-04-22T15:02:31;18.90;91.60
19803;DHT22;66074;50.764;6.090;2023-04-22T15:04:57;18.70;91.60
19803;DHT22;66074;50.764;6.090;2023-04-22T15:07:23;18.60;91.60
19803;DHT22;66074;50.764;6.090;2023-04-22T15:09:49;18.50;91.90
19803;DHT22;66074;50.764;6.090;2023-04-22T15:12:15;18.30;92.20
19803;DHT22;66074;50.764;6.090;2023-04-22T15:14:40;18.20;92.60
19803;DHT22;66074;50.764;6.090;2023-04-22T15:17:06;18.10;92.90
19803;DHT22;66074;50.764;6.090;2023-04-22T15:19:32;17.90;92.90
19803;DHT22;66074;50.764;6.090;2023-04-22T15:21:57;17.90;93.10
19803;DHT22;66074;50.764;6.090;2023-04-22T15:24:23;17.70;93.20
19803;DHT22;66074;50.764;6.090;2023-04-22T15:26:51;17.70;93.30
19803;DHT22;66074;50.764;6.090;2023-04-22T15:29:17;17.50;93.60
19803;DHT22;66074;50.764;6.090;2023-04-22T15:31:43;17.50;93.90
19803;DHT22;66074;50.764;6.090;2023-04-22T15:34:09;17.50;94.10
19803;DHT22;66074;50.764;6.090;2023-04-22T15:36:35;17.40;94.00
19803;DHT22;66074;50.764;6.090;2023-04-22T15:39:01;17.30;94.10
19803;DHT22;66074;50.764;6.090;2023-04-22T15:41:28;17.20;94.30
19803;DHT22;66074;50.764;6.090;2023-04-22T15:43:54;17.20;94.30
19803;DHT22;66074;50.764;6.090;2023-04-22T15:46:20;17.20;94.30
19803;DHT22;66074;50.764;6.090;2023-04-22T15:48:47;17.20;94.40
19803;DHT22;66074;50.764;6.090;2023-04-22T15:51:17;17.20;94.70